createdAt,value
2019-02-22T00:01:19.761Z,9.37
2019-02-22T00:03:48.562Z,9.26
2019-02-22T00:06:17.561Z,9.14
2019-02-22T00:08:46.472Z,9.15
2019-02-22T00:11:15.288Z,9.15
2019-02-22T00:13:44.213Z,9.15
2019-02-22T00:16:13.105Z,9.12
2019-02-22T00:18:42.165Z,9.13
2019-02-22T00:21:11.085Z,9.08
2019-02-22T00:23:39.935Z,9.08
2019-02-22T00:26:10.969Z,9.23
2019-02-22T00:28:39.457Z,9.23
2019-02-22T00:31:08.434Z,9.28
2019-02-22T00:33:37.491Z,9.42
2019-02-22T00:36:06.477Z,9.53
2019-02-22T00:38:35.425Z,9.55
2019-02-22T00:41:04.385Z,9.55
2019-02-22T00:43:33.449Z,9.59
2019-02-22T00:46:02.401Z,9.72
2019-02-22T00:48:31.351Z,9.54
2019-02-22T00:51:00.261Z,9.65
2019-02-22T00:53:29.086Z,9.76
2019-02-22T00:55:57.914Z,9.86
2019-02-22T00:58:26.835Z,9.98
2019-02-22T01:00:55.705Z,10.02
2019-02-22T01:03:24.718Z,9.85
2019-02-22T01:05:53.508Z,9.94
2019-02-22T01:08:22.399Z,9.97
2019-02-22T01:10:51.308Z,10.18
2019-02-22T01:13:20.263Z,10.25
2019-02-22T01:15:49.177Z,10.29
2019-02-22T01:18:18.019Z,10.35
2019-02-22T01:20:53.968Z,10.37
2019-02-22T01:23:17.448Z,10.32
2019-02-22T01:25:46.410Z,10.24
2019-02-22T01:28:15.245Z,10.37
2019-02-22T01:30:44.325Z,10.36
2019-02-22T01:33:13.311Z,10.35
2019-02-22T01:35:42.226Z,10.43
2019-02-22T01:38:11.237Z,10.51
2019-02-22T01:40:43.562Z,10.51
2019-02-22T01:43:10.863Z,10.37
2019-02-22T01:45:39.650Z,10.46
2019-02-22T01:48:08.605Z,10.38
2019-02-22T01:50:37.570Z,10.44
2019-02-22T01:53:06.589Z,10.43
2019-02-22T01:55:35.581Z,10.42
2019-02-22T01:58:04.517Z,10.34
2019-02-22T02:00:33.497Z,10.51
2019-02-22T02:03:02.345Z,10.35
2019-02-22T02:05:31.160Z,10.23
2019-02-22T02:08:00.013Z,10.24
2019-02-22T02:10:28.946Z,10.20
2019-02-22T02:12:57.741Z,10.22
2019-02-22T02:15:26.673Z,10.19
2019-02-22T02:17:55.509Z,10.24
2019-02-22T02:20:24.539Z,10.30
2019-02-22T02:22:53.501Z,10.24
2019-02-22T02:25:22.459Z,10.32
2019-02-22T02:27:51.343Z,10.26
2019-02-22T02:30:20.302Z,10.23
2019-02-22T02:32:49.194Z,10.19
2019-02-22T02:35:18.178Z,10.20
2019-02-22T02:37:47.137Z,10.13
2019-02-22T02:40:16.149Z,10.13
2019-02-22T02:42:45.137Z,10.12
2019-02-22T02:45:14.127Z,10.11
2019-02-22T02:47:43.090Z,10.10
2019-02-22T02:50:18.133Z,10.07
2019-02-22T02:52:47.089Z,10.05
2019-02-22T02:55:26.695Z,10.05
2019-02-22T02:57:55.649Z,10.04
2019-02-22T03:00:24.592Z,9.99
2019-02-22T03:02:53.623Z,9.97
2019-02-22T03:05:27.503Z,9.97
2019-02-22T03:07:56.778Z,10.05
2019-02-22T03:10:25.668Z,10.03
2019-02-22T03:12:54.497Z,10.01
2019-02-22T03:15:23.405Z,10.02
2019-02-22T03:17:52.330Z,10.02
2019-02-22T03:20:21.339Z,10.05
2019-02-22T03:22:50.231Z,10.02
2019-02-22T03:25:19.160Z,9.98
2019-02-22T03:27:48.082Z,9.97
2019-02-22T03:30:17.047Z,10.19
2019-02-22T03:32:45.884Z,10.14
2019-02-22T03:35:14.914Z,10.22
2019-02-22T03:37:43.824Z,10.27
2019-02-22T03:40:12.921Z,10.39
2019-02-22T03:42:41.956Z,10.42
2019-02-22T03:45:10.980Z,10.30
2019-02-22T03:47:39.964Z,10.34
2019-02-22T03:50:08.946Z,10.22
2019-02-22T03:52:45.087Z,10.14
2019-02-22T03:55:14.346Z,10.19
2019-02-22T03:57:43.369Z,10.17
2019-02-22T04:00:12.629Z,10.12
2019-02-22T04:02:41.496Z,10.33
2019-02-22T04:05:10.519Z,10.20
2019-02-22T04:07:39.427Z,10.28
2019-02-22T04:10:08.496Z,10.43
2019-02-22T04:12:37.363Z,10.28
2019-02-22T04:15:06.552Z,10.23
2019-02-22T04:17:35.480Z,10.23
2019-02-22T04:20:04.363Z,10.21
2019-02-22T04:22:33.271Z,10.27
2019-02-22T04:25:02.198Z,10.18
2019-02-22T04:27:31.036Z,10.34
2019-02-22T04:30:00.158Z,10.47
2019-02-22T04:32:29.302Z,10.47
2019-02-22T04:34:58.155Z,10.42
2019-02-22T04:37:27.142Z,10.34
2019-02-22T04:39:55.946Z,10.37
2019-02-22T04:42:24.954Z,10.36
2019-02-22T04:44:53.974Z,10.33
2019-02-22T04:47:24.011Z,10.33
2019-02-22T04:49:52.929Z,10.42
2019-02-22T04:52:21.833Z,10.39
2019-02-22T04:54:50.764Z,10.42
2019-02-22T04:57:19.706Z,10.35
2019-02-22T04:59:48.528Z,10.35
2019-02-22T05:02:17.592Z,10.31
2019-02-22T05:04:47.583Z,10.25
2019-02-22T05:07:16.480Z,10.12
2019-02-22T05:09:45.414Z,10.14
2019-02-22T05:12:14.314Z,10.14
2019-02-22T05:14:43.423Z,10.19
2019-02-22T05:17:12.404Z,10.18
2019-02-22T05:19:41.407Z,10.27
2019-02-22T05:22:10.382Z,10.27
2019-02-22T05:24:39.393Z,10.27
2019-02-22T05:27:08.186Z,10.25
2019-02-22T05:29:37.094Z,10.30
2019-02-22T05:32:06.142Z,10.19
2019-02-22T05:34:35.556Z,10.18
2019-02-22T05:37:04.410Z,10.30
2019-02-22T05:39:33.363Z,10.32
2019-02-22T05:42:02.259Z,10.23
2019-02-22T05:44:31.180Z,10.18
2019-02-22T05:47:00.774Z,10.17
2019-02-22T05:49:29.884Z,10.19
2019-02-22T05:51:58.833Z,10.20
2019-02-22T05:54:27.769Z,10.15
2019-02-22T05:56:56.695Z,10.18
2019-02-22T05:59:25.529Z,10.21
2019-02-22T06:01:54.410Z,10.24
2019-02-22T06:04:23.375Z,10.21
2019-02-22T06:06:52.232Z,10.28
2019-02-22T06:09:21.156Z,10.18
2019-02-22T06:11:49.939Z,10.25
2019-02-22T06:14:18.792Z,10.33
2019-02-22T06:16:47.642Z,10.25
2019-02-22T06:19:16.522Z,10.41
2019-02-22T06:21:45.415Z,10.15
2019-02-22T06:24:14.429Z,10.07
2019-02-22T06:26:43.803Z,9.98
2019-02-22T06:29:12.817Z,9.97
2019-02-22T06:31:41.751Z,9.90
2019-02-22T06:34:11.099Z,9.89
2019-02-22T06:36:40.098Z,9.88
2019-02-22T06:39:09.117Z,9.89
2019-02-22T06:41:37.986Z,10.00
2019-02-22T06:44:06.895Z,10.05
2019-02-22T06:46:35.939Z,10.22
2019-02-22T06:49:04.876Z,10.23
2019-02-22T06:51:33.875Z,10.22
2019-02-22T06:54:02.886Z,10.14
2019-02-22T06:56:31.711Z,10.23
2019-02-22T06:59:00.680Z,10.09
2019-02-22T07:01:29.637Z,10.03
2019-02-22T07:03:58.531Z,10.15
2019-02-22T07:06:27.418Z,10.10
2019-02-22T07:08:56.409Z,10.10
2019-02-22T07:11:43.413Z,10.21
2019-02-22T07:14:12.328Z,10.37
2019-02-22T07:16:41.330Z,10.32
2019-02-22T07:19:10.173Z,10.27
2019-02-22T07:21:51.835Z,10.31
2019-02-22T07:24:09.706Z,10.38
2019-02-22T07:26:38.740Z,10.55
2019-02-22T07:29:07.714Z,10.48
2019-02-22T07:31:36.813Z,10.50
2019-02-22T07:34:05.735Z,10.67
2019-02-22T07:36:34.637Z,10.58
2019-02-22T07:39:04.934Z,10.52
2019-02-22T07:41:33.813Z,10.75
2019-02-22T07:44:02.817Z,10.77
2019-02-22T07:46:31.752Z,11.05
2019-02-22T07:49:00.572Z,10.93
2019-02-22T07:51:29.655Z,10.79
2019-02-22T07:53:58.572Z,10.87
2019-02-22T07:56:27.509Z,10.78
2019-02-22T07:58:56.545Z,10.88
2019-02-22T08:01:27.031Z,11.01
2019-02-22T08:03:56.186Z,11.16
2019-02-22T08:06:25.277Z,11.23
2019-02-22T08:08:54.111Z,11.49
2019-02-22T08:11:25.808Z,11.62
2019-02-22T08:13:54.708Z,11.66
2019-02-22T08:16:23.863Z,11.65
2019-02-22T08:19:00.904Z,11.65
2019-02-22T08:21:23.944Z,11.79
2019-02-22T08:23:55.141Z,11.82
2019-02-22T08:26:24.260Z,11.71
2019-02-22T08:28:53.303Z,11.54
2019-02-22T08:31:22.368Z,11.58
2019-02-22T08:33:51.340Z,11.57
2019-02-22T08:36:20.300Z,11.65
2019-02-22T08:38:49.193Z,11.92
2019-02-22T08:41:18.212Z,12.03
2019-02-22T08:43:47.270Z,12.08
2019-02-22T08:46:16.155Z,12.28
2019-02-22T08:48:45.173Z,12.19
2019-02-22T08:51:14.032Z,12.17
2019-02-22T08:53:43.090Z,12.24
2019-02-22T08:56:11.937Z,12.17
2019-02-22T08:58:40.920Z,11.39
2019-02-22T09:01:09.878Z,12.40
2019-02-22T09:03:49.678Z,12.48
2019-02-22T09:06:10.146Z,12.58
2019-02-22T09:08:38.977Z,12.78
2019-02-22T09:11:08.042Z,12.67
2019-02-22T09:13:43.646Z,12.57
2019-02-22T09:16:07.568Z,12.78
2019-02-22T09:18:37.219Z,12.82
2019-02-22T09:21:06.085Z,12.57
2019-02-22T09:23:35.473Z,12.69
2019-02-22T09:26:04.441Z,12.62
2019-02-22T09:28:33.323Z,12.69
2019-02-22T09:31:02.293Z,12.81
2019-02-22T09:33:31.353Z,12.99
2019-02-22T09:36:00.349Z,12.98
2019-02-22T09:38:29.299Z,12.93
2019-02-22T09:40:58.216Z,12.81
2019-02-22T09:43:27.010Z,12.83
2019-02-22T09:45:55.941Z,13.02
2019-02-22T09:48:24.898Z,13.02
2019-02-22T09:50:54.007Z,13.00
2019-02-22T09:53:22.931Z,12.91
2019-02-22T09:55:51.879Z,12.79
2019-02-22T09:58:20.913Z,12.92
2019-02-22T10:00:49.832Z,12.98
2019-02-22T10:03:18.629Z,13.13
2019-02-22T10:05:48.023Z,13.11
2019-02-22T10:08:16.992Z,13.07
2019-02-22T10:10:46.064Z,13.15
2019-02-22T10:13:14.970Z,13.25
2019-02-22T10:15:43.983Z,13.36
2019-02-22T10:18:12.835Z,13.47
2019-02-22T10:20:41.835Z,13.49
2019-02-22T10:23:10.838Z,13.55
2019-02-22T10:25:39.973Z,13.64
2019-02-22T10:28:17.311Z,13.65
2019-02-22T10:30:39.903Z,13.52
2019-02-22T10:33:08.954Z,13.29
2019-02-22T10:35:37.889Z,13.36
2019-02-22T10:38:07.168Z,13.28
2019-02-22T10:40:36.148Z,13.48
2019-02-22T10:43:05.115Z,13.51
2019-02-22T10:45:36.744Z,13.65
2019-02-22T10:48:04.810Z,13.72
2019-02-22T10:50:33.835Z,13.76
2019-02-22T10:53:03.074Z,13.86
2019-02-22T10:55:32.055Z,13.64
2019-02-22T10:58:01.137Z,13.77
2019-02-22T11:00:30.239Z,13.72
2019-02-22T11:02:59.215Z,13.34
2019-02-22T11:05:28.315Z,13.46
2019-02-22T11:07:57.123Z,13.71
2019-02-22T11:10:26.142Z,13.73
2019-02-22T11:12:55.234Z,13.85
2019-02-22T11:15:24.338Z,13.82
2019-02-22T11:17:55.224Z,13.98
2019-02-22T11:20:24.256Z,13.93
2019-02-22T11:22:53.337Z,13.94
2019-02-22T11:25:22.355Z,14.15
2019-02-22T11:27:51.548Z,13.92
2019-02-22T11:30:20.647Z,13.87
2019-02-22T11:32:49.657Z,13.98
2019-02-22T11:35:18.604Z,14.15
2019-02-22T11:37:47.629Z,14.28
2019-02-22T11:40:16.559Z,14.43
2019-02-22T11:42:45.445Z,14.19
2019-02-22T11:45:14.529Z,14.02
2019-02-22T11:47:43.418Z,13.79
2019-02-22T11:50:12.410Z,13.76
2019-02-22T11:52:41.369Z,13.74
2019-02-22T11:55:10.494Z,13.89
2019-02-22T11:57:39.617Z,14.08
2019-02-22T12:00:11.472Z,14.25
2019-02-22T12:02:40.723Z,14.55
2019-02-22T12:05:09.750Z,14.64
2019-02-22T12:07:38.619Z,14.71
2019-02-22T12:10:07.788Z,15.08
2019-02-22T12:12:36.968Z,15.04
2019-02-22T12:15:07.166Z,14.98
2019-02-22T12:17:36.116Z,14.65
2019-02-22T12:20:05.370Z,14.57
2019-02-22T12:22:34.481Z,14.47
2019-02-22T12:25:03.355Z,14.63
2019-02-22T12:27:32.313Z,14.29
2019-02-22T12:30:01.338Z,14.12
2019-02-22T12:32:30.568Z,13.97
2019-02-22T12:34:59.424Z,14.01
2019-02-22T12:37:28.555Z,13.85
2019-02-22T12:39:57.499Z,13.48
2019-02-22T12:42:26.524Z,13.44
2019-02-22T12:45:02.833Z,13.37
2019-02-22T12:47:26.002Z,13.24
2019-02-22T12:49:54.960Z,13.22
2019-02-22T12:52:23.859Z,13.05
2019-02-22T12:54:52.766Z,12.99
2019-02-22T12:57:21.702Z,12.93
2019-02-22T12:59:50.621Z,12.90
2019-02-22T13:02:19.537Z,12.93
2019-02-22T13:04:48.482Z,13.03
2019-02-22T13:07:17.399Z,12.96
2019-02-22T13:09:46.320Z,12.99
2019-02-22T13:12:17.311Z,13.08
2019-02-22T13:14:45.983Z,13.05
2019-02-22T13:17:14.880Z,13.07
2019-02-22T13:19:44.105Z,13.11
2019-02-22T13:22:13.069Z,13.11
2019-02-22T13:24:41.960Z,13.15
2019-02-22T13:27:10.868Z,13.07
2019-02-22T13:29:39.795Z,13.21
2019-02-22T13:32:08.638Z,13.21
2019-02-22T13:34:37.576Z,13.35
2019-02-22T13:37:06.524Z,13.06
2019-02-22T13:39:35.387Z,12.90
2019-02-22T13:42:04.573Z,12.90
2019-02-22T13:44:33.586Z,13.15
2019-02-22T13:47:02.416Z,13.16
2019-02-22T13:49:31.389Z,13.38
2019-02-22T13:52:00.284Z,13.27
2019-02-22T13:54:29.196Z,13.38
2019-02-22T13:56:57.979Z,13.91
2019-02-22T13:59:26.826Z,13.97
2019-02-22T14:01:55.701Z,13.99
2019-02-22T14:04:32.812Z,13.84
2019-02-22T14:07:02.013Z,14.06
2019-02-22T14:09:30.941Z,14.35
2019-02-22T14:11:59.763Z,14.21
2019-02-22T14:14:28.701Z,13.97
2019-02-22T14:16:57.547Z,14.09
2019-02-22T14:19:26.431Z,14.73
2019-02-22T14:21:55.447Z,14.66
2019-02-22T14:24:24.307Z,13.92
2019-02-22T14:26:53.151Z,14.05
2019-02-22T14:29:22.939Z,13.87
2019-02-22T14:31:51.944Z,13.75
2019-02-22T14:34:20.797Z,13.72
2019-02-22T14:36:49.893Z,13.77
2019-02-22T14:39:18.759Z,13.57
2019-02-22T14:41:48.110Z,13.56
2019-02-22T14:44:17.110Z,13.15
2019-02-22T14:46:46.232Z,13.35
2019-02-22T14:49:15.146Z,13.40
2019-02-22T14:51:44.117Z,13.23
2019-02-22T14:54:13.199Z,13.36
2019-02-22T14:56:42.133Z,13.33
2019-02-22T14:59:10.993Z,13.30
2019-02-22T15:01:40.005Z,13.36
2019-02-22T15:04:09.006Z,13.39
2019-02-22T15:06:40.326Z,13.15
2019-02-22T15:09:08.807Z,13.25
2019-02-22T15:11:37.810Z,12.92
2019-02-22T15:14:06.839Z,13.11
2019-02-22T15:16:58.354Z,13.13
2019-02-22T15:19:27.547Z,13.08
2019-02-22T15:21:56.481Z,12.93
2019-02-22T15:24:25.516Z,12.77
2019-02-22T15:26:54.493Z,12.91
2019-02-22T15:29:23.525Z,12.83
2019-02-22T15:31:52.449Z,13.07
2019-02-22T15:34:21.398Z,12.67
2019-02-22T15:36:50.645Z,12.73
2019-02-22T15:39:19.599Z,12.87
2019-02-22T15:41:48.545Z,12.81
2019-02-22T15:44:17.745Z,12.55
2019-02-22T15:46:55.872Z,12.53
2019-02-22T15:49:25.015Z,12.53
2019-02-22T15:51:53.945Z,12.71
2019-02-22T15:54:23.126Z,12.47
2019-02-22T15:56:52.079Z,12.43
2019-02-22T15:59:21.274Z,12.16
2019-02-22T16:01:55.205Z,12.01
2019-02-22T16:04:45.109Z,11.88
2019-02-22T16:07:13.735Z,11.83
2019-02-22T16:09:42.754Z,11.77
2019-02-22T16:12:11.761Z,11.51
2019-02-22T16:14:40.840Z,11.59
2019-02-22T16:17:10.062Z,11.49
2019-02-22T16:19:38.780Z,11.41
2019-02-22T16:22:07.773Z,11.43
2019-02-22T16:24:39.782Z,11.45
2019-02-22T16:27:08.656Z,11.56
2019-02-22T16:29:37.618Z,11.61
2019-02-22T16:32:06.817Z,11.52
2019-02-22T16:34:43.135Z,11.56
2019-02-22T16:37:06.366Z,11.43
2019-02-22T16:39:35.255Z,11.13
2019-02-22T16:42:04.259Z,11.22
2019-02-22T16:44:33.338Z,11.08
2019-02-22T16:47:02.350Z,11.06
2019-02-22T16:49:31.327Z,10.89
2019-02-22T16:52:00.363Z,10.84
2019-02-22T16:54:29.242Z,10.84
2019-02-22T16:56:58.226Z,10.72
2019-02-22T16:59:27.170Z,10.64
2019-02-22T17:01:56.311Z,10.45
2019-02-22T17:04:25.269Z,10.30
2019-02-22T17:06:54.200Z,10.32
2019-02-22T17:09:23.573Z,10.25
2019-02-22T17:11:52.501Z,10.10
2019-02-22T17:14:21.459Z,10.01
2019-02-22T17:16:50.422Z,9.89
2019-02-22T17:19:19.264Z,9.84
2019-02-22T17:21:48.071Z,9.73
2019-02-22T17:24:17.064Z,9.88
2019-02-22T17:26:46.049Z,9.83
2019-02-22T17:29:14.959Z,9.74
2019-02-22T17:31:44.181Z,9.73
2019-02-22T17:34:13.079Z,9.67
2019-02-22T17:36:41.966Z,9.48
2019-02-22T17:39:10.940Z,9.38
2019-02-22T17:41:42.782Z,9.35
2019-02-22T17:44:11.353Z,9.41
2019-02-22T17:46:40.240Z,9.47
2019-02-22T17:49:09.252Z,9.32
2019-02-22T17:51:38.307Z,9.01
2019-02-22T17:54:07.208Z,9.01
2019-02-22T17:56:36.121Z,8.91
2019-02-22T17:59:05.186Z,8.89
2019-02-22T18:01:34.084Z,8.81
2019-02-22T18:04:02.968Z,8.70
2019-02-22T18:06:31.990Z,8.56
2019-02-22T18:09:00.896Z,8.48
2019-02-22T18:11:30.392Z,8.45
2019-02-22T18:13:59.270Z,8.35
2019-02-22T18:16:28.178Z,8.31
2019-02-22T18:18:57.073Z,8.34
2019-02-22T18:21:26.098Z,8.29
2019-02-22T18:23:54.948Z,8.15
2019-02-22T18:26:23.862Z,8.05
2019-02-22T18:28:52.671Z,7.99
2019-02-22T18:31:21.766Z,7.92
2019-02-22T18:33:50.689Z,7.91
2019-02-22T18:36:19.489Z,7.87
2019-02-22T18:38:48.426Z,7.78
2019-02-22T18:41:17.337Z,7.79
2019-02-22T18:43:46.290Z,7.89
2019-02-22T18:46:15.211Z,8.19
2019-02-22T18:48:44.108Z,8.39
2019-02-22T18:51:13.124Z,8.42
2019-02-22T18:53:42.035Z,8.37
2019-02-22T18:56:10.956Z,8.56
2019-02-22T18:58:39.738Z,8.40
2019-02-22T19:01:08.842Z,8.36
2019-02-22T19:03:37.707Z,8.38
2019-02-22T19:06:06.669Z,8.33
2019-02-22T19:08:35.525Z,8.29
2019-02-22T19:11:04.472Z,8.16
2019-02-22T19:13:33.284Z,8.15
2019-02-22T19:16:02.058Z,8.21
2019-02-22T19:18:30.882Z,8.29
2019-02-22T19:20:59.698Z,8.35
2019-02-22T19:23:28.556Z,8.44
2019-02-22T19:25:57.431Z,8.31
2019-02-22T19:28:26.428Z,8.28
2019-02-22T19:30:55.308Z,8.30
2019-02-22T19:33:24.411Z,8.30
2019-02-22T19:35:53.297Z,8.14
2019-02-22T19:38:22.327Z,8.10
2019-02-22T19:40:51.759Z,7.99
2019-02-22T19:43:20.966Z,7.94
2019-02-22T19:45:50.035Z,7.83
2019-02-22T19:48:18.953Z,7.81
2019-02-22T19:50:48.044Z,7.79
2019-02-22T19:53:16.994Z,7.76
2019-02-22T19:55:47.050Z,7.79
2019-02-22T19:58:16.214Z,7.88
2019-02-22T20:00:45.140Z,7.80
2019-02-22T20:03:14.087Z,7.76
2019-02-22T20:05:43.313Z,7.68
2019-02-22T20:08:12.309Z,7.62
2019-02-22T20:10:42.268Z,7.55
2019-02-22T20:13:11.258Z,7.36
2019-02-22T20:15:40.122Z,7.47
2019-02-22T20:18:09.803Z,7.40
2019-02-22T20:20:39.034Z,7.36
2019-02-22T20:23:07.875Z,7.26
2019-02-22T20:25:36.836Z,7.32
2019-02-22T20:28:05.813Z,7.17
2019-02-22T20:30:34.729Z,7.01
2019-02-22T20:33:03.622Z,7.00
2019-02-22T20:35:32.956Z,7.16
2019-02-22T20:38:02.022Z,7.24
2019-02-22T20:40:30.884Z,7.20
2019-02-22T20:42:59.816Z,7.21
2019-02-22T20:45:28.878Z,7.23
2019-02-22T20:48:05.041Z,7.20
2019-02-22T20:50:30.107Z,7.14
2019-02-22T20:53:00.700Z,7.04
2019-02-22T20:55:30.245Z,7.06
2019-02-22T20:57:59.292Z,7.04
2019-02-22T21:00:28.304Z,6.90
2019-02-22T21:02:57.290Z,6.84
2019-02-22T21:05:26.120Z,6.75
2019-02-22T21:07:55.032Z,6.66
2019-02-22T21:10:24.056Z,6.58
2019-02-22T21:12:52.938Z,6.52
2019-02-22T21:15:21.833Z,6.45
2019-02-22T21:17:50.746Z,6.34
2019-02-22T21:20:19.746Z,6.24
2019-02-22T21:22:48.707Z,6.31
2019-02-22T21:25:18.271Z,6.28
2019-02-22T21:27:47.553Z,6.36
2019-02-22T21:30:16.895Z,6.42
2019-02-22T21:32:45.732Z,6.69
2019-02-22T21:35:14.702Z,6.65
2019-02-22T21:37:43.938Z,6.54
2019-02-22T21:40:13.519Z,6.56
2019-02-22T21:42:42.476Z,6.43
2019-02-22T21:45:12.044Z,6.37
2019-02-22T21:47:41.311Z,6.42
2019-02-22T21:50:12.092Z,6.62
2019-02-22T21:52:41.046Z,6.65
2019-02-22T21:55:10.659Z,6.66
2019-02-22T21:57:39.755Z,6.66
2019-02-22T22:00:12.091Z,6.64
2019-02-22T22:02:41.024Z,6.72
2019-02-22T22:05:09.965Z,6.78
2019-02-22T22:07:38.987Z,6.75
2019-02-22T22:10:08.019Z,6.89
2019-02-22T22:12:36.904Z,6.87
2019-02-22T22:15:06.240Z,6.83
2019-02-22T22:17:35.137Z,6.76
2019-02-22T22:20:04.404Z,6.77
2019-02-22T22:22:33.246Z,6.76
2019-02-22T22:25:02.240Z,6.63
2019-02-22T22:27:31.242Z,6.62
2019-02-22T22:30:00.212Z,6.54
2019-02-22T22:32:29.427Z,6.59
2019-02-22T22:34:58.321Z,6.54
2019-02-22T22:37:34.460Z,6.53
2019-02-22T22:40:03.405Z,6.46
2019-02-22T22:42:32.313Z,6.40
2019-02-22T22:45:01.328Z,6.34
2019-02-22T22:47:30.326Z,6.29
2019-02-22T22:49:59.162Z,6.20
2019-02-22T22:52:28.177Z,6.21
2019-02-22T22:54:57.097Z,6.17
2019-02-22T22:57:26.090Z,6.15
2019-02-22T22:59:55.006Z,6.08
2019-02-22T23:02:24.412Z,6.06
2019-02-22T23:04:53.260Z,6.07
2019-02-22T23:07:22.253Z,5.96
2019-02-22T23:09:51.285Z,5.93
2019-02-22T23:12:20.412Z,5.91
2019-02-22T23:14:49.240Z,5.93
2019-02-22T23:17:18.324Z,5.84
2019-02-22T23:19:47.335Z,5.82
2019-02-22T23:22:16.289Z,5.86
2019-02-22T23:24:45.234Z,5.82
2019-02-22T23:27:14.164Z,5.86
2019-02-22T23:29:43.043Z,5.85
2019-02-22T23:32:11.932Z,5.74
2019-02-22T23:34:40.939Z,5.79
2019-02-22T23:37:09.956Z,5.73
2019-02-22T23:39:39.683Z,5.70
2019-02-22T23:42:08.633Z,5.62
2019-02-22T23:44:37.496Z,5.64
2019-02-22T23:47:06.454Z,5.50
2019-02-22T23:49:36.448Z,5.52
2019-02-22T23:52:05.437Z,5.53
2019-02-22T23:54:34.309Z,5.39
2019-02-22T23:57:03.142Z,5.37
2019-02-22T23:59:32.105Z,5.36
